createdAt,value
2023-01-19T00:02:28.795Z,93.77
2023-01-19T00:04:58.878Z,93.92
2023-01-19T00:07:27.620Z,93.87
2023-01-19T00:09:56.453Z,93.93
2023-01-19T00:12:25.266Z,93.91
2023-01-19T00:14:54.058Z,94.11
2023-01-19T00:17:22.725Z,93.81
2023-01-19T00:19:53.058Z,94.26
2023-01-19T00:22:21.938Z,94.08
2023-01-19T00:24:50.683Z,94.22
2023-01-19T00:27:19.476Z,94.21
2023-01-19T00:29:48.662Z,94.02
2023-01-19T00:32:20.476Z,93.75
2023-01-19T00:34:52.578Z,94.05
2023-01-19T00:37:22.848Z,94.22
2023-01-19T00:39:51.589Z,94.03
2023-01-19T00:42:30.219Z,94.32
2023-01-19T00:44:59.005Z,94.23
2023-01-19T00:47:27.696Z,94.40
2023-01-19T00:49:56.438Z,94.20
2023-01-19T00:52:26.729Z,94.29
2023-01-19T00:54:55.456Z,93.81
2023-01-19T00:57:24.288Z,93.93
2023-01-19T00:59:53.191Z,94.29
2023-01-19T01:02:22.135Z,94.18
2023-01-19T01:04:55.011Z,94.43
2023-01-19T01:07:24.246Z,94.06
2023-01-19T01:09:54.423Z,94.20
2023-01-19T01:12:23.629Z,93.88
2023-01-19T01:14:52.351Z,94.37
2023-01-19T01:17:25.448Z,94.13
2023-01-19T01:19:54.328Z,94.15
2023-01-19T01:22:23.083Z,94.22
2023-01-19T01:24:53.516Z,94.29
2023-01-19T01:27:22.487Z,94.21
2023-01-19T01:29:51.169Z,93.93
2023-01-19T01:32:19.926Z,94.58
2023-01-19T01:34:48.630Z,94.19
2023-01-19T01:37:20.558Z,94.25
2023-01-19T01:39:49.779Z,94.44
2023-01-19T01:42:21.689Z,94.50
2023-01-19T01:44:53.563Z,94.52
2023-01-19T01:47:30.044Z,94.19
2023-01-19T01:50:06.665Z,94.36
2023-01-19T01:52:39.624Z,94.22
2023-01-19T01:55:11.478Z,94.58
2023-01-19T01:57:51.570Z,94.18
2023-01-19T02:00:20.872Z,94.50
2023-01-19T02:02:51.884Z,94.28
2023-01-19T02:05:24.673Z,94.54
2023-01-19T02:08:07.684Z,94.57
2023-01-19T02:10:45.623Z,94.49
2023-01-19T02:13:21.286Z,94.73
2023-01-19T02:15:51.919Z,94.41
2023-01-19T02:18:21.689Z,94.82
2023-01-19T02:21:00.772Z,94.38
2023-01-19T02:23:40.788Z,94.36
2023-01-19T02:26:11.787Z,94.32
2023-01-19T02:28:44.860Z,94.37
2023-01-19T02:31:15.593Z,94.30
2023-01-19T02:33:45.583Z,94.20
2023-01-19T02:36:17.018Z,94.63
2023-01-19T02:38:49.631Z,94.90
2023-01-19T02:41:24.052Z,94.47
2023-01-19T02:43:54.904Z,94.79
2023-01-19T02:46:23.933Z,94.74
2023-01-19T02:48:52.686Z,94.33
2023-01-19T02:51:25.442Z,94.58
2023-01-19T02:54:18.976Z,94.60
2023-01-19T02:57:01.476Z,94.94
2023-01-19T02:59:42.161Z,94.84
2023-01-19T03:02:25.535Z,95.07
2023-01-19T03:05:10.069Z,94.60
2023-01-19T03:07:52.522Z,94.58
2023-01-19T03:10:31.371Z,94.45
2023-01-19T03:13:06.015Z,94.90
2023-01-19T03:15:42.407Z,95.19
2023-01-19T03:18:15.761Z,95.21
2023-01-19T03:20:46.800Z,94.86
2023-01-19T03:23:17.702Z,95.26
2023-01-19T03:25:50.888Z,94.52
2023-01-19T03:28:23.520Z,95.04
2023-01-19T03:30:59.344Z,94.82
2023-01-19T03:33:31.922Z,94.86
2023-01-19T03:36:06.482Z,95.20
2023-01-19T03:38:38.633Z,94.86
2023-01-19T03:41:15.695Z,94.95
2023-01-19T03:43:46.270Z,94.92
2023-01-19T03:46:17.543Z,95.39
2023-01-19T03:48:47.213Z,95.32
2023-01-19T03:51:17.676Z,94.78
2023-01-19T03:53:46.503Z,94.90
2023-01-19T03:56:24.143Z,95.06
2023-01-19T03:58:54.541Z,95.36
2023-01-19T04:01:25.339Z,95.06
2023-01-19T04:03:54.881Z,95.13
2023-01-19T04:06:23.790Z,94.85
2023-01-19T04:08:53.300Z,94.94
2023-01-19T04:11:23.561Z,94.92
2023-01-19T04:13:52.371Z,94.82
2023-01-19T04:16:21.787Z,95.12
2023-01-19T04:18:53.031Z,95.44
2023-01-19T04:21:21.974Z,95.29
2023-01-19T04:23:51.042Z,95.12
2023-01-19T04:26:20.011Z,95.08
2023-01-19T04:28:50.177Z,95.25
2023-01-19T04:31:19.604Z,95.06
2023-01-19T04:33:48.363Z,95.43
2023-01-19T04:36:17.109Z,95.06
2023-01-19T04:38:46.821Z,95.29
2023-01-19T04:41:15.222Z,95.40
2023-01-19T04:43:44.113Z,95.50
2023-01-19T04:46:14.274Z,95.22
2023-01-19T04:48:43.259Z,95.22
2023-01-19T04:51:12.245Z,94.98
2023-01-19T04:53:41.086Z,94.81
2023-01-19T04:56:09.800Z,95.22
2023-01-19T04:58:38.651Z,95.34
2023-01-19T05:01:09.940Z,94.94
2023-01-19T05:03:40.387Z,95.13
2023-01-19T05:06:09.358Z,95.30
2023-01-19T05:08:38.020Z,95.34
2023-01-19T05:11:07.526Z,94.52
2023-01-19T05:13:36.201Z,94.82
2023-01-19T05:16:06.414Z,94.85
2023-01-19T05:18:37.422Z,94.53
2023-01-19T05:21:09.055Z,94.56
2023-01-19T05:23:38.226Z,94.52
2023-01-19T05:26:09.445Z,94.72
2023-01-19T05:28:38.503Z,94.26
2023-01-19T05:31:07.453Z,94.20
2023-01-19T05:33:36.360Z,94.07
2023-01-19T05:36:05.771Z,93.61
2023-01-19T05:38:36.261Z,93.98
2023-01-19T05:41:05.238Z,93.61
2023-01-19T05:43:34.072Z,93.74
2023-01-19T05:46:05.050Z,93.31
2023-01-19T05:48:33.956Z,93.18
2023-01-19T05:51:03.230Z,93.23
2023-01-19T05:53:32.242Z,92.91
2023-01-19T05:56:03.615Z,93.30
2023-01-19T05:58:32.421Z,92.63
2023-01-19T06:01:05.800Z,93.01
2023-01-19T06:03:34.946Z,92.73
2023-01-19T06:06:04.263Z,92.78
2023-01-19T06:08:33.091Z,92.45
2023-01-19T06:11:03.242Z,92.56
2023-01-19T06:13:31.971Z,92.32
2023-01-19T06:16:01.244Z,92.42
2023-01-19T06:18:30.791Z,92.49
2023-01-19T06:20:59.923Z,92.57
2023-01-19T06:23:31.069Z,91.56
2023-01-19T06:25:59.990Z,92.31
2023-01-19T06:28:30.202Z,91.99
2023-01-19T06:30:59.589Z,91.83
2023-01-19T06:33:28.976Z,92.02
2023-01-19T06:35:58.105Z,91.71
2023-01-19T06:38:27.027Z,91.15
2023-01-19T06:40:58.806Z,91.10
2023-01-19T06:43:29.357Z,91.22
2023-01-19T06:45:58.496Z,90.78
2023-01-19T06:48:27.284Z,90.85
2023-01-19T06:50:58.553Z,90.96
2023-01-19T06:53:30.440Z,90.62
2023-01-19T06:56:02.894Z,90.88
2023-01-19T06:58:35.380Z,90.93
2023-01-19T07:01:05.245Z,90.31
2023-01-19T07:03:35.455Z,90.60
2023-01-19T07:06:06.885Z,89.98
2023-01-19T07:08:36.082Z,90.01
2023-01-19T07:11:25.246Z,90.42
2023-01-19T07:13:58.147Z,90.06
2023-01-19T07:16:27.104Z,89.84
2023-01-19T07:18:55.981Z,89.73
2023-01-19T07:21:25.106Z,89.59
2023-01-19T07:23:54.450Z,89.81
2023-01-19T07:26:25.292Z,89.38
2023-01-19T07:28:54.010Z,89.35
2023-01-19T07:31:24.582Z,89.31
2023-01-19T07:33:53.385Z,88.94
2023-01-19T07:36:22.323Z,88.96
2023-01-19T07:38:51.146Z,88.65
2023-01-19T07:41:19.844Z,88.93
2023-01-19T07:43:52.534Z,88.76
2023-01-19T07:46:21.329Z,88.92
2023-01-19T07:48:51.345Z,88.76
2023-01-19T07:51:20.272Z,88.29
2023-01-19T07:53:51.875Z,87.87
2023-01-19T07:56:20.802Z,88.09
2023-01-19T07:58:50.554Z,87.85
2023-01-19T08:01:19.801Z,87.72
2023-01-19T08:03:51.051Z,87.38
2023-01-19T08:06:23.685Z,87.56
2023-01-19T08:08:53.053Z,87.05
2023-01-19T08:11:21.793Z,87.41
2023-01-19T08:13:50.551Z,86.98
2023-01-19T08:16:19.536Z,86.97
2023-01-19T08:18:48.427Z,87.07
2023-01-19T08:21:18.579Z,87.03
2023-01-19T08:23:53.757Z,86.88
2023-01-19T08:26:27.630Z,86.97
2023-01-19T08:28:57.812Z,86.33
2023-01-19T08:31:27.365Z,86.66
2023-01-19T08:33:55.839Z,86.35
2023-01-19T08:36:26.320Z,86.49
2023-01-19T08:38:55.127Z,86.38
2023-01-19T08:41:23.917Z,86.47
2023-01-19T08:43:52.661Z,86.34
2023-01-19T08:46:22.084Z,86.35
2023-01-19T08:48:50.663Z,86.28
2023-01-19T08:51:19.927Z,86.01
2023-01-19T08:53:50.396Z,85.74
2023-01-19T08:56:20.695Z,86.29
2023-01-19T08:59:03.456Z,86.13
2023-01-19T09:01:38.088Z,86.16
2023-01-19T09:04:07.377Z,85.67
2023-01-19T09:06:36.220Z,85.95
2023-01-19T09:09:06.459Z,85.56
2023-01-19T09:11:36.765Z,85.54
2023-01-19T09:14:05.771Z,85.74
2023-01-19T09:16:34.591Z,85.48
2023-01-19T09:19:03.464Z,85.51
2023-01-19T09:21:32.151Z,85.69
2023-01-19T09:24:01.044Z,85.78
2023-01-19T09:26:33.157Z,85.70
2023-01-19T09:29:02.385Z,85.34
2023-01-19T09:31:31.043Z,85.35
2023-01-19T09:33:59.968Z,85.26
2023-01-19T09:36:28.783Z,85.11
2023-01-19T09:38:57.457Z,85.15
2023-01-19T09:41:26.530Z,84.55
2023-01-19T09:44:01.159Z,84.67
2023-01-19T09:46:36.603Z,84.63
2023-01-19T09:49:14.925Z,84.36
2023-01-19T09:51:46.829Z,84.44
2023-01-19T09:54:17.902Z,84.24
2023-01-19T09:56:50.691Z,83.82
2023-01-19T09:59:25.368Z,83.80
2023-01-19T10:02:09.125Z,83.86
2023-01-19T10:04:42.583Z,83.89
2023-01-19T10:07:17.716Z,83.70
2023-01-19T10:09:58.432Z,83.57
2023-01-19T10:12:40.582Z,83.56
2023-01-19T10:15:19.819Z,83.30
2023-01-19T10:18:00.311Z,83.37
2023-01-19T10:20:37.030Z,83.60
2023-01-19T10:23:18.998Z,83.29
2023-01-19T10:25:48.970Z,83.10
2023-01-19T10:28:21.223Z,83.53
2023-01-19T10:30:53.078Z,83.32
2023-01-19T10:33:21.951Z,83.51
2023-01-19T10:35:50.860Z,83.49
2023-01-19T10:38:22.488Z,83.45
2023-01-19T10:40:58.170Z,83.16
2023-01-19T10:43:43.432Z,83.17
2023-01-19T10:46:27.383Z,83.38
2023-01-19T10:48:57.368Z,83.10
2023-01-19T10:51:26.238Z,83.03
2023-01-19T10:53:58.477Z,82.85
2023-01-19T10:56:32.374Z,82.88
2023-01-19T10:59:03.345Z,82.60
2023-01-19T11:01:37.433Z,82.60
2023-01-19T11:04:23.295Z,82.65
2023-01-19T11:06:52.097Z,82.38
2023-01-19T11:09:24.071Z,82.65
2023-01-19T11:11:56.160Z,81.98
2023-01-19T11:14:27.963Z,82.42
2023-01-19T11:17:00.437Z,82.05
2023-01-19T11:19:32.355Z,81.94
2023-01-19T11:22:22.002Z,81.66
2023-01-19T11:24:51.222Z,81.71
2023-01-19T11:27:21.739Z,81.79
2023-01-19T11:29:55.523Z,81.55
2023-01-19T11:32:30.018Z,81.52
2023-01-19T11:34:59.304Z,81.12
2023-01-19T11:37:31.696Z,80.93
2023-01-19T11:40:03.088Z,81.14
2023-01-19T11:42:36.993Z,80.98
2023-01-19T11:45:14.190Z,80.80
2023-01-19T11:47:46.057Z,80.70
2023-01-19T11:50:31.407Z,80.58
2023-01-19T11:53:06.245Z,80.24
2023-01-19T11:55:41.325Z,79.92
2023-01-19T11:58:17.117Z,79.71
2023-01-19T12:00:51.719Z,79.46
2023-01-19T12:03:26.741Z,79.15
2023-01-19T12:06:02.444Z,78.99
2023-01-19T12:08:37.200Z,79.16
2023-01-19T12:11:08.267Z,78.65
2023-01-19T12:13:37.733Z,78.37
2023-01-19T12:16:10.512Z,78.34
2023-01-19T12:18:45.472Z,78.45
2023-01-19T12:21:14.225Z,77.98
2023-01-19T12:23:52.043Z,78.16
2023-01-19T12:26:29.886Z,78.13
2023-01-19T12:29:02.075Z,77.62
2023-01-19T12:31:30.995Z,77.88
2023-01-19T12:34:26.196Z,77.34
2023-01-19T12:37:01.042Z,77.39
2023-01-19T12:39:30.017Z,77.57
2023-01-19T12:42:12.293Z,77.15
2023-01-19T12:44:42.915Z,77.19
2023-01-19T12:47:24.558Z,76.67
2023-01-19T12:49:56.768Z,76.75
2023-01-19T12:52:34.309Z,76.59
2023-01-19T12:55:09.469Z,76.12
2023-01-19T12:57:41.438Z,76.52
2023-01-19T13:00:30.735Z,76.28
2023-01-19T13:03:01.469Z,75.97
2023-01-19T13:05:58.789Z,76.36
2023-01-19T13:08:31.366Z,75.76
2023-01-19T13:11:23.789Z,75.96
2023-01-19T13:14:25.871Z,76.12
2023-01-19T13:17:04.508Z,75.97
2023-01-19T13:19:53.783Z,75.60
2023-01-19T13:22:44.243Z,75.70
2023-01-19T13:25:23.477Z,75.75
2023-01-19T13:27:52.362Z,75.68
2023-01-19T13:30:27.375Z,75.68
2023-01-19T13:32:58.839Z,75.21
2023-01-19T13:35:28.972Z,75.60
2023-01-19T13:38:00.085Z,75.01
2023-01-19T13:40:38.400Z,75.47
2023-01-19T13:43:16.121Z,75.05
2023-01-19T13:45:51.113Z,75.38
2023-01-19T13:48:23.851Z,75.49
2023-01-19T13:51:05.407Z,75.40
2023-01-19T13:53:35.648Z,75.37
2023-01-19T13:56:18.342Z,75.01
2023-01-19T13:59:01.104Z,75.34
2023-01-19T14:01:30.358Z,74.79
2023-01-19T14:03:59.709Z,75.19
2023-01-19T14:06:37.666Z,75.10
2023-01-19T14:09:16.940Z,75.00
2023-01-19T14:11:49.608Z,75.19
2023-01-19T14:14:30.180Z,74.74
2023-01-19T14:16:59.956Z,74.71
2023-01-19T14:19:29.220Z,75.21
2023-01-19T14:22:03.308Z,75.14
2023-01-19T14:24:33.430Z,75.07
2023-01-19T14:27:22.878Z,74.61
2023-01-19T14:29:54.937Z,74.62
2023-01-19T14:32:28.176Z,74.74
2023-01-19T14:35:15.611Z,74.79
2023-01-19T14:37:49.158Z,74.78
2023-01-19T14:40:20.507Z,74.64
2023-01-19T14:42:54.333Z,74.76
2023-01-19T14:45:26.491Z,74.44
2023-01-19T14:47:58.585Z,74.83
2023-01-19T14:50:31.668Z,74.53
2023-01-19T14:53:04.689Z,74.48
2023-01-19T14:55:38.014Z,74.45
2023-01-19T14:58:13.274Z,74.57
2023-01-19T15:00:42.226Z,75.10
2023-01-19T15:03:11.359Z,74.33
2023-01-19T15:05:41.368Z,75.12
2023-01-19T15:08:13.949Z,75.07
2023-01-19T15:10:43.117Z,74.84
2023-01-19T15:13:20.352Z,75.14
2023-01-19T15:15:49.970Z,74.97
2023-01-19T15:18:20.983Z,75.10
2023-01-19T15:20:49.779Z,75.33
2023-01-19T15:23:18.551Z,75.14
2023-01-19T15:25:47.349Z,74.62
2023-01-19T15:28:20.539Z,75.29
2023-01-19T15:30:49.446Z,75.10
2023-01-19T15:33:21.772Z,75.05
2023-01-19T15:35:51.294Z,75.38
2023-01-19T15:38:19.997Z,75.03
2023-01-19T15:40:51.403Z,74.87
2023-01-19T15:43:22.364Z,74.83
2023-01-19T15:45:54.997Z,75.23
2023-01-19T15:48:23.812Z,75.30
2023-01-19T15:50:52.596Z,75.16
2023-01-19T15:53:24.710Z,74.92
2023-01-19T15:55:57.046Z,74.95
2023-01-19T15:58:27.349Z,75.59
2023-01-19T16:00:57.439Z,74.78
2023-01-19T16:03:27.629Z,74.83
2023-01-19T16:05:56.457Z,75.20
2023-01-19T16:08:25.130Z,74.82
2023-01-19T16:10:54.361Z,74.77
2023-01-19T16:13:23.078Z,74.98
2023-01-19T16:15:53.323Z,75.10
2023-01-19T16:18:22.049Z,74.78
2023-01-19T16:20:50.721Z,74.83
2023-01-19T16:23:19.486Z,74.58
2023-01-19T16:25:57.692Z,74.36
2023-01-19T16:28:27.248Z,74.79
2023-01-19T16:30:57.408Z,75.07
2023-01-19T16:33:26.660Z,75.01
2023-01-19T16:35:55.428Z,74.96
2023-01-19T16:38:25.028Z,74.52
2023-01-19T16:40:53.719Z,75.09
2023-01-19T16:43:22.457Z,74.75
2023-01-19T16:46:00.730Z,75.06
2023-01-19T16:48:30.247Z,75.45
2023-01-19T16:51:04.842Z,74.95
2023-01-19T16:53:35.852Z,75.28
2023-01-19T16:56:07.910Z,75.45
2023-01-19T16:58:38.536Z,75.55
2023-01-19T17:01:14.905Z,75.51
2023-01-19T17:03:44.408Z,75.10
2023-01-19T17:06:15.879Z,74.93
2023-01-19T17:08:44.491Z,75.61
2023-01-19T17:11:19.894Z,74.88
2023-01-19T17:13:48.924Z,75.09
2023-01-19T17:16:19.216Z,75.19
2023-01-19T17:18:48.262Z,75.14
2023-01-19T17:21:18.214Z,75.45
2023-01-19T17:23:49.181Z,75.51
2023-01-19T17:26:18.657Z,75.90
2023-01-19T17:28:48.111Z,76.25
2023-01-19T17:31:20.984Z,75.95
2023-01-19T17:33:51.802Z,76.00
2023-01-19T17:36:22.910Z,76.76
2023-01-19T17:38:52.402Z,76.67
2023-01-19T17:41:23.728Z,76.85
2023-01-19T17:43:53.778Z,77.68
2023-01-19T17:46:26.407Z,78.24
2023-01-19T17:48:56.439Z,78.30
2023-01-19T17:51:26.382Z,78.34
2023-01-19T17:53:55.734Z,78.93
2023-01-19T17:56:28.547Z,79.62
2023-01-19T17:58:57.791Z,79.37
2023-01-19T18:01:30.145Z,80.46
2023-01-19T18:04:00.117Z,80.42
2023-01-19T18:06:29.786Z,80.85
2023-01-19T18:08:59.783Z,81.30
2023-01-19T18:11:29.464Z,81.74
2023-01-19T18:13:58.661Z,81.73
2023-01-19T18:16:31.020Z,81.60
2023-01-19T18:19:03.214Z,82.79
2023-01-19T18:21:32.296Z,82.64
2023-01-19T18:24:03.481Z,83.29
2023-01-19T18:26:33.599Z,82.96
2023-01-19T18:29:02.854Z,83.13
2023-01-19T18:31:33.127Z,83.10
2023-01-19T18:34:02.518Z,83.55
2023-01-19T18:36:32.330Z,84.19
2023-01-19T18:39:02.440Z,83.71
2023-01-19T18:41:31.241Z,83.62
2023-01-19T18:44:00.168Z,84.19
2023-01-19T18:46:29.129Z,84.81
2023-01-19T18:48:59.369Z,84.80
2023-01-19T18:51:28.194Z,85.41
2023-01-19T18:53:58.211Z,85.60
2023-01-19T18:56:27.530Z,85.13
2023-01-19T18:58:56.727Z,85.23
2023-01-19T19:01:28.772Z,85.62
2023-01-19T19:04:00.104Z,85.90
2023-01-19T19:06:28.947Z,85.83
2023-01-19T19:08:59.347Z,85.76
2023-01-19T19:11:29.429Z,85.96
2023-01-19T19:13:58.855Z,86.32
2023-01-19T19:16:28.688Z,86.19
2023-01-19T19:18:58.222Z,85.74
2023-01-19T19:21:28.611Z,85.67
2023-01-19T19:23:59.300Z,86.48
2023-01-19T19:26:29.363Z,86.19
2023-01-19T19:28:58.080Z,86.42
2023-01-19T19:31:28.380Z,85.78
2023-01-19T19:33:58.446Z,85.65
2023-01-19T19:36:29.895Z,85.22
2023-01-19T19:39:01.652Z,85.51
2023-01-19T19:41:32.894Z,85.28
2023-01-19T19:44:01.865Z,84.89
2023-01-19T19:46:30.573Z,84.87
2023-01-19T19:48:59.817Z,84.95
2023-01-19T19:51:30.144Z,84.67
2023-01-19T19:54:00.537Z,85.24
2023-01-19T19:56:32.456Z,84.86
2023-01-19T19:59:01.366Z,84.84
2023-01-19T20:01:33.757Z,84.75
2023-01-19T20:04:10.889Z,85.67
2023-01-19T20:06:45.045Z,85.48
2023-01-19T20:09:14.348Z,85.35
2023-01-19T20:11:44.332Z,85.57
2023-01-19T20:14:16.317Z,86.26
2023-01-19T20:16:45.181Z,85.96
2023-01-19T20:19:13.908Z,86.17
2023-01-19T20:21:44.191Z,85.39
2023-01-19T20:24:15.714Z,85.80
2023-01-19T20:26:47.349Z,85.74
2023-01-19T20:29:16.755Z,84.57
2023-01-19T20:31:49.154Z,84.21
2023-01-19T20:34:20.877Z,84.01
2023-01-19T20:36:53.453Z,84.63
2023-01-19T20:39:24.033Z,83.79
2023-01-19T20:41:53.107Z,83.56
2023-01-19T20:44:23.849Z,83.22
2023-01-19T20:46:54.013Z,83.73
2023-01-19T20:49:24.318Z,82.93
2023-01-19T20:51:54.427Z,82.26
2023-01-19T20:54:26.544Z,83.07
2023-01-19T20:56:55.719Z,82.03
2023-01-19T20:59:25.052Z,82.53
2023-01-19T21:01:54.308Z,82.32
2023-01-19T21:04:22.980Z,81.79
2023-01-19T21:06:51.696Z,82.47
2023-01-19T21:09:23.146Z,81.63
2023-01-19T21:11:52.256Z,82.17
2023-01-19T21:14:20.976Z,81.37
2023-01-19T21:16:51.347Z,81.47
2023-01-19T21:19:20.125Z,81.68
2023-01-19T21:21:49.288Z,81.14
2023-01-19T21:24:17.909Z,80.87
2023-01-19T21:26:50.865Z,81.63
2023-01-19T21:29:19.579Z,81.46
2023-01-19T21:31:48.196Z,80.75
2023-01-19T21:34:17.051Z,80.21
2023-01-19T21:36:45.975Z,80.72
2023-01-19T21:39:17.194Z,80.28
2023-01-19T21:41:47.600Z,80.80
2023-01-19T21:44:16.396Z,80.41
2023-01-19T21:46:45.394Z,80.14
2023-01-19T21:49:18.897Z,80.46
2023-01-19T21:51:50.681Z,80.05
2023-01-19T21:54:20.621Z,79.89
2023-01-19T21:56:50.720Z,80.08
2023-01-19T21:59:20.466Z,80.45
2023-01-19T22:01:49.633Z,79.81
2023-01-19T22:04:18.468Z,80.41
2023-01-19T22:06:47.369Z,80.04
2023-01-19T22:09:15.964Z,79.57
2023-01-19T22:11:44.655Z,79.76
2023-01-19T22:14:15.159Z,80.62
2023-01-19T22:16:44.067Z,80.51
2023-01-19T22:19:14.578Z,80.27
2023-01-19T22:21:43.253Z,80.11
2023-01-19T22:24:13.006Z,80.25
2023-01-19T22:26:41.891Z,80.46
2023-01-19T22:29:11.476Z,80.11
2023-01-19T22:31:41.447Z,80.08
2023-01-19T22:34:11.195Z,80.14
2023-01-19T22:36:40.113Z,79.90
2023-01-19T22:39:10.889Z,80.71
2023-01-19T22:41:42.115Z,80.06
2023-01-19T22:44:13.925Z,79.96
2023-01-19T22:46:44.723Z,80.26
2023-01-19T22:49:16.416Z,79.25
2023-01-19T22:51:45.645Z,79.97
2023-01-19T22:54:14.336Z,79.59
2023-01-19T22:56:43.762Z,79.46
2023-01-19T22:59:12.566Z,79.63
2023-01-19T23:01:45.102Z,79.04
2023-01-19T23:04:16.477Z,79.63
2023-01-19T23:06:49.408Z,79.07
2023-01-19T23:09:18.761Z,79.05
2023-01-19T23:11:53.252Z,79.07
2023-01-19T23:14:23.353Z,78.75
2023-01-19T23:16:53.578Z,79.42
2023-01-19T23:19:22.917Z,78.90
2023-01-19T23:21:52.699Z,78.90
2023-01-19T23:24:21.670Z,78.92
2023-01-19T23:26:50.821Z,78.54
2023-01-19T23:29:19.992Z,78.71
2023-01-19T23:31:50.879Z,78.55
2023-01-19T23:34:21.230Z,78.58
2023-01-19T23:36:50.045Z,78.65
2023-01-19T23:39:21.173Z,79.08
2023-01-19T23:41:50.956Z,79.03
2023-01-19T23:44:19.570Z,78.77
2023-01-19T23:46:48.500Z,78.36
2023-01-19T23:49:17.197Z,78.35
2023-01-19T23:51:47.449Z,78.78
2023-01-19T23:54:16.142Z,78.95
2023-01-19T23:56:44.838Z,78.55
2023-01-19T23:59:16.578Z,78.59
